createdAt,value
2018-12-12T00:00:26.357Z,92.90
2018-12-12T00:02:57.738Z,93.08
2018-12-12T00:05:29.374Z,92.45
2018-12-12T00:08:00.671Z,92.84
2018-12-12T00:10:30.812Z,92.22
2018-12-12T00:13:00.010Z,92.76
2018-12-12T00:15:29.861Z,92.59
2018-12-12T00:17:59.755Z,92.82
2018-12-12T00:20:29.136Z,92.52
2018-12-12T00:22:58.775Z,92.54
2018-12-12T00:25:28.176Z,91.37
2018-12-12T00:27:57.502Z,92.25
2018-12-12T00:30:27.590Z,91.76
2018-12-12T00:32:56.885Z,92.65
2018-12-12T00:35:26.987Z,93.57
2018-12-12T00:37:56.231Z,93.39
2018-12-12T00:40:25.531Z,93.17
2018-12-12T00:42:55.044Z,93.25
2018-12-12T00:45:24.635Z,93.51
2018-12-12T00:47:53.921Z,93.09
2018-12-12T00:50:23.848Z,94.18
2018-12-12T00:52:53.342Z,94.03
2018-12-12T00:55:24.616Z,94.15
2018-12-12T00:57:54.064Z,94.35
2018-12-12T01:00:23.645Z,94.21
2018-12-12T01:02:53.100Z,94.45
2018-12-12T01:05:23.041Z,94.54
2018-12-12T01:07:52.496Z,94.02
2018-12-12T01:10:21.830Z,94.21
2018-12-12T01:12:52.006Z,94.72
2018-12-12T01:15:22.160Z,95.13
2018-12-12T01:17:51.706Z,95.07
2018-12-12T01:20:21.593Z,95.14
2018-12-12T01:22:50.970Z,95.08
2018-12-12T01:25:20.313Z,95.48
2018-12-12T01:27:49.937Z,94.67
2018-12-12T01:30:20.126Z,94.95
2018-12-12T01:32:49.827Z,94.87
2018-12-12T01:35:19.032Z,94.57
2018-12-12T01:37:48.378Z,94.95
2018-12-12T01:40:18.127Z,95.27
2018-12-12T01:42:47.611Z,94.19
2018-12-12T01:45:17.767Z,93.97
2018-12-12T01:47:47.818Z,94.70
2018-12-12T01:50:17.376Z,94.71
2018-12-12T01:52:47.417Z,95.30
2018-12-12T01:55:17.606Z,94.78
2018-12-12T01:57:47.556Z,94.82
2018-12-12T02:00:17.091Z,94.79
2018-12-12T02:02:47.135Z,95.08
2018-12-12T02:05:16.446Z,95.18
2018-12-12T02:07:45.861Z,94.69
2018-12-12T02:10:16.006Z,94.91
2018-12-12T02:12:51.751Z,94.56
2018-12-12T02:15:21.230Z,94.33
2018-12-12T02:17:51.303Z,95.20
2018-12-12T02:20:21.493Z,94.81
2018-12-12T02:22:51.778Z,95.25
2018-12-12T02:25:20.983Z,95.09
2018-12-12T02:27:50.283Z,94.91
2018-12-12T02:30:19.620Z,94.82
2018-12-12T02:32:49.890Z,95.07
2018-12-12T02:35:19.908Z,95.27
2018-12-12T02:37:49.168Z,94.82
2018-12-12T02:40:19.182Z,94.82
2018-12-12T02:42:48.503Z,94.33
2018-12-12T02:45:18.109Z,94.64
2018-12-12T02:47:47.792Z,94.85
2018-12-12T02:50:17.041Z,94.54
2018-12-12T02:52:47.221Z,94.56
2018-12-12T02:55:17.446Z,95.04
2018-12-12T02:57:46.898Z,94.99
2018-12-12T03:00:16.981Z,94.44
2018-12-12T03:02:46.404Z,94.39
2018-12-12T03:05:15.886Z,94.41
2018-12-12T03:07:45.646Z,94.18
2018-12-12T03:10:14.881Z,94.50
2018-12-12T03:12:44.054Z,94.55
2018-12-12T03:15:14.386Z,94.43
2018-12-12T03:17:44.282Z,93.79
2018-12-12T03:20:13.618Z,93.83
2018-12-12T03:22:42.918Z,93.82
2018-12-12T03:25:12.122Z,93.85
2018-12-12T03:27:41.461Z,93.48
2018-12-12T03:30:11.082Z,93.36
2018-12-12T03:32:40.375Z,92.85
2018-12-12T03:35:09.951Z,93.23
2018-12-12T03:37:39.740Z,92.80
2018-12-12T03:40:09.703Z,93.12
2018-12-12T03:42:39.631Z,92.75
2018-12-12T03:45:09.067Z,92.38
2018-12-12T03:47:38.759Z,92.62
2018-12-12T03:50:08.354Z,91.99
2018-12-12T03:52:37.760Z,91.88
2018-12-12T03:55:08.126Z,92.33
2018-12-12T03:57:37.762Z,91.45
2018-12-12T04:00:08.558Z,91.32
2018-12-12T04:02:38.166Z,91.77
2018-12-12T04:05:08.287Z,91.98
2018-12-12T04:07:37.661Z,92.34
2018-12-12T04:10:07.841Z,92.34
2018-12-12T04:12:38.079Z,92.06
2018-12-12T04:15:07.556Z,92.59
2018-12-12T04:17:37.004Z,93.06
2018-12-12T04:20:06.761Z,92.45
2018-12-12T04:22:36.988Z,92.19
2018-12-12T04:25:07.829Z,92.85
2018-12-12T04:27:37.313Z,92.84
2018-12-12T04:30:08.240Z,93.00
2018-12-12T04:32:38.588Z,93.28
2018-12-12T04:35:08.811Z,93.12
2018-12-12T04:37:38.137Z,93.70
2018-12-12T04:40:08.216Z,92.63
2018-12-12T04:42:38.332Z,92.87
2018-12-12T04:45:08.601Z,92.47
2018-12-12T04:47:38.775Z,92.22
2018-12-12T04:50:08.296Z,92.69
2018-12-12T04:52:38.532Z,91.95
2018-12-12T04:55:08.404Z,91.53
2018-12-12T04:57:37.796Z,91.84
2018-12-12T05:00:07.771Z,91.82
2018-12-12T05:02:38.458Z,91.51
2018-12-12T05:05:09.173Z,91.58
2018-12-12T05:07:39.405Z,91.24
2018-12-12T05:10:09.012Z,91.49
2018-12-12T05:12:38.813Z,90.70
2018-12-12T05:15:08.358Z,90.47
2018-12-12T05:17:38.226Z,90.43
2018-12-12T05:20:08.471Z,91.24
2018-12-12T05:22:37.832Z,91.58
2018-12-12T05:25:07.946Z,92.53
2018-12-12T05:27:39.160Z,92.97
2018-12-12T05:30:09.367Z,94.18
2018-12-12T05:32:39.400Z,93.97
2018-12-12T05:35:08.929Z,93.87
2018-12-12T05:37:38.377Z,93.66
2018-12-12T05:40:08.962Z,93.91
2018-12-12T05:42:40.388Z,93.17
2018-12-12T05:45:11.434Z,93.48
2018-12-12T05:47:40.743Z,93.23
2018-12-12T05:50:10.026Z,93.22
2018-12-12T05:52:39.788Z,93.97
2018-12-12T05:55:09.368Z,93.70
2018-12-12T05:57:39.503Z,94.32
2018-12-12T06:00:11.108Z,93.53
2018-12-12T06:02:40.844Z,93.67
2018-12-12T06:05:10.203Z,93.75
2018-12-12T06:07:39.533Z,94.08
2018-12-12T06:10:09.433Z,93.71
2018-12-12T06:12:40.624Z,93.18
2018-12-12T06:15:10.997Z,93.55
2018-12-12T06:17:40.297Z,93.22
2018-12-12T06:20:10.695Z,93.61
2018-12-12T06:22:40.686Z,93.59
2018-12-12T06:25:10.624Z,93.27
2018-12-12T06:27:39.928Z,92.76
2018-12-12T06:30:10.216Z,93.29
2018-12-12T06:32:39.488Z,93.23
2018-12-12T06:35:09.514Z,92.42
2018-12-12T06:37:38.840Z,92.96
2018-12-12T06:40:09.195Z,92.78
2018-12-12T06:42:40.786Z,94.11
2018-12-12T06:45:10.303Z,94.00
2018-12-12T06:47:39.656Z,94.08
2018-12-12T06:50:09.888Z,93.96
2018-12-12T06:52:39.144Z,94.34
2018-12-12T06:55:09.032Z,94.71
2018-12-12T06:57:38.384Z,95.66
2018-12-12T07:00:07.867Z,95.45
2018-12-12T07:02:37.457Z,94.88
2018-12-12T07:05:06.898Z,94.52
2018-12-12T07:07:36.436Z,94.05
2018-12-12T07:10:06.186Z,94.08
2018-12-12T07:12:35.769Z,93.60
2018-12-12T07:15:05.678Z,93.58
2018-12-12T07:17:35.175Z,93.54
2018-12-12T07:20:04.863Z,94.06
2018-12-12T07:22:34.402Z,94.55
2018-12-12T07:25:03.842Z,93.64
2018-12-12T07:27:33.867Z,93.47
2018-12-12T07:30:04.144Z,93.39
2018-12-12T07:32:34.382Z,92.92
2018-12-12T07:35:04.602Z,92.96
2018-12-12T07:37:33.852Z,92.63
2018-12-12T07:40:03.970Z,91.99
2018-12-12T07:42:33.993Z,92.14
2018-12-12T07:45:20.859Z,92.81
2018-12-12T07:47:52.131Z,92.31
2018-12-12T07:50:44.099Z,92.14
2018-12-12T07:53:19.708Z,91.72
2018-12-12T07:55:49.079Z,91.69
2018-12-12T07:58:19.421Z,92.11
2018-12-12T08:00:49.384Z,91.57
2018-12-12T08:03:18.956Z,91.67
2018-12-12T08:05:49.659Z,91.94
2018-12-12T08:08:19.363Z,91.81
2018-12-12T08:10:49.523Z,91.43
2018-12-12T08:13:19.533Z,91.34
2018-12-12T08:15:49.909Z,90.72
2018-12-12T08:18:19.813Z,90.74
2018-12-12T08:20:50.005Z,90.92
2018-12-12T08:23:20.653Z,90.89
2018-12-12T08:25:50.323Z,90.37
2018-12-12T08:28:20.252Z,89.21
2018-12-12T08:30:50.208Z,90.07
2018-12-12T08:33:27.203Z,89.41
2018-12-12T08:35:57.030Z,89.37
2018-12-12T08:38:27.362Z,89.20
2018-12-12T08:40:57.642Z,89.17
2018-12-12T08:43:27.647Z,89.13
2018-12-12T08:45:56.997Z,88.85
2018-12-12T08:48:27.287Z,87.99
2018-12-12T08:50:57.119Z,87.99
2018-12-12T08:53:27.498Z,88.04
2018-12-12T08:55:57.988Z,87.96
2018-12-12T08:58:27.948Z,88.39
2018-12-12T09:00:58.354Z,87.93
2018-12-12T09:03:28.593Z,88.26
2018-12-12T09:05:58.183Z,87.63
2018-12-12T09:08:27.859Z,87.84
2018-12-12T09:10:57.823Z,87.68
2018-12-12T09:13:28.683Z,88.05
2018-12-12T09:15:58.175Z,87.82
2018-12-12T09:18:27.539Z,87.13
2018-12-12T09:20:56.822Z,87.24
2018-12-12T09:23:26.794Z,86.70
2018-12-12T09:25:57.070Z,86.64
2018-12-12T09:28:26.408Z,87.13
2018-12-12T09:30:58.484Z,87.90
2018-12-12T09:33:30.288Z,87.31
2018-12-12T09:36:01.848Z,86.97
2018-12-12T09:38:31.249Z,87.12
2018-12-12T09:41:00.989Z,87.14
2018-12-12T09:43:32.808Z,86.91
2018-12-12T09:46:02.758Z,86.57
2018-12-12T09:48:32.963Z,86.59
2018-12-12T09:51:07.026Z,86.55
2018-12-12T09:53:37.008Z,86.35
2018-12-12T09:56:07.019Z,86.33
2018-12-12T09:58:36.552Z,85.40
2018-12-12T10:01:06.447Z,85.15
2018-12-12T10:03:36.917Z,85.76
2018-12-12T10:06:07.663Z,85.70
2018-12-12T10:08:37.427Z,86.08
2018-12-12T10:11:07.139Z,86.32
2018-12-12T10:13:37.753Z,85.47
2018-12-12T10:16:07.408Z,85.33
2018-12-12T10:18:37.103Z,85.57
2018-12-12T10:21:07.283Z,84.65
2018-12-12T10:23:36.624Z,84.41
2018-12-12T10:26:06.028Z,84.37
2018-12-12T10:28:37.137Z,84.96
2018-12-12T10:31:07.059Z,85.18
2018-12-12T10:33:37.854Z,85.27
2018-12-12T10:36:08.687Z,85.56
2018-12-12T10:38:38.289Z,84.09
2018-12-12T10:41:07.846Z,83.72
2018-12-12T10:43:37.237Z,82.30
2018-12-12T10:46:06.643Z,81.29
2018-12-12T10:48:36.128Z,80.54
2018-12-12T10:51:05.578Z,80.23
2018-12-12T10:53:35.049Z,80.67
2018-12-12T10:56:04.490Z,81.28
2018-12-12T10:58:34.342Z,81.87
2018-12-12T11:01:11.347Z,82.25
2018-12-12T11:03:44.365Z,81.84
2018-12-12T11:06:14.006Z,81.62
2018-12-12T11:08:44.192Z,82.37
2018-12-12T11:11:14.463Z,82.10
2018-12-12T11:13:43.864Z,81.70
2018-12-12T11:16:13.552Z,82.14
2018-12-12T11:18:44.539Z,82.76
2018-12-12T11:21:13.946Z,82.28
2018-12-12T11:23:43.410Z,82.57
2018-12-12T11:26:13.074Z,82.92
2018-12-12T11:28:42.841Z,82.31
2018-12-12T11:31:12.852Z,82.40
2018-12-12T11:33:42.163Z,82.52
2018-12-12T11:36:11.534Z,82.99
2018-12-12T11:38:41.549Z,82.57
2018-12-12T11:41:11.024Z,82.04
2018-12-12T11:43:40.676Z,82.17
2018-12-12T11:46:11.995Z,81.21
2018-12-12T11:48:42.173Z,80.75
2018-12-12T11:51:12.555Z,81.82
2018-12-12T11:53:41.984Z,81.63
2018-12-12T11:56:12.017Z,81.81
2018-12-12T11:58:42.338Z,81.66
2018-12-12T12:01:12.225Z,80.87
2018-12-12T12:03:42.466Z,81.34
2018-12-12T12:06:11.720Z,80.12
2018-12-12T12:08:41.140Z,79.45
2018-12-12T12:11:11.223Z,79.66
2018-12-12T12:13:43.294Z,79.86
2018-12-12T12:16:12.852Z,79.79
2018-12-12T12:18:42.302Z,79.59
2018-12-12T12:21:11.914Z,79.72
2018-12-12T12:23:41.399Z,79.58
2018-12-12T12:26:13.134Z,79.69
2018-12-12T12:28:43.679Z,79.64
2018-12-12T12:31:14.004Z,78.57
2018-12-12T12:33:43.964Z,79.32
2018-12-12T12:36:14.410Z,77.99
2018-12-12T12:38:46.543Z,77.84
2018-12-12T12:41:16.737Z,77.75
2018-12-12T12:43:47.468Z,78.34
2018-12-12T12:46:18.883Z,77.73
2018-12-12T12:48:48.639Z,77.62
2018-12-12T12:51:18.258Z,78.36
2018-12-12T12:53:48.362Z,77.54
2018-12-12T12:56:18.820Z,77.14
2018-12-12T12:58:48.944Z,77.80
2018-12-12T13:01:18.984Z,78.62
2018-12-12T13:03:49.512Z,78.75
2018-12-12T13:06:23.553Z,78.65
2018-12-12T13:08:54.523Z,78.38
2018-12-12T13:11:24.164Z,79.25
2018-12-12T13:13:54.002Z,78.85
2018-12-12T13:16:23.445Z,78.61
2018-12-12T13:18:53.571Z,78.92
2018-12-12T13:21:23.504Z,79.58
2018-12-12T13:23:54.395Z,79.93
2018-12-12T13:26:24.109Z,78.29
2018-12-12T13:28:55.183Z,78.16
2018-12-12T13:31:26.120Z,78.16
2018-12-12T13:33:56.615Z,79.14
2018-12-12T13:36:26.749Z,78.32
2018-12-12T13:38:56.601Z,79.10
2018-12-12T13:41:26.204Z,79.46
2018-12-12T13:43:57.500Z,79.20
2018-12-12T13:46:27.496Z,79.36
2018-12-12T13:48:57.319Z,79.71
2018-12-12T13:51:28.155Z,79.94
2018-12-12T13:53:58.265Z,79.60
2018-12-12T13:56:28.235Z,79.72
2018-12-12T13:58:57.951Z,79.85
2018-12-12T14:01:27.979Z,79.37
2018-12-12T14:03:57.585Z,80.84
2018-12-12T14:06:27.321Z,79.26
2018-12-12T14:08:58.311Z,78.07
2018-12-12T14:11:28.699Z,78.94
2018-12-12T14:13:58.709Z,78.59
2018-12-12T14:16:28.968Z,79.24
2018-12-12T14:18:58.990Z,79.29
2018-12-12T14:21:29.365Z,79.52
2018-12-12T14:23:59.055Z,80.96
2018-12-12T14:26:28.815Z,82.02
2018-12-12T14:28:58.841Z,81.69
2018-12-12T14:31:28.369Z,81.19
2018-12-12T14:33:59.479Z,82.25
2018-12-12T14:36:30.433Z,83.16
2018-12-12T14:39:00.746Z,83.76
2018-12-12T14:41:30.990Z,83.65
2018-12-12T14:44:00.994Z,83.73
2018-12-12T14:46:30.659Z,83.58
2018-12-12T14:49:00.800Z,82.89
2018-12-12T14:51:30.530Z,82.76
2018-12-12T14:54:01.002Z,83.09
2018-12-12T14:56:33.199Z,83.30
2018-12-12T14:59:03.701Z,82.05
2018-12-12T15:01:33.244Z,82.26
2018-12-12T15:04:03.477Z,82.70
2018-12-12T15:06:32.920Z,83.14
2018-12-12T15:09:02.911Z,83.52
2018-12-12T15:11:32.484Z,84.11
2018-12-12T15:14:03.115Z,83.67
2018-12-12T15:16:32.611Z,83.85
2018-12-12T15:19:02.140Z,84.56
2018-12-12T15:21:31.654Z,84.84
2018-12-12T15:24:01.240Z,85.36
2018-12-12T15:26:30.726Z,85.49
2018-12-12T15:29:00.252Z,86.11
2018-12-12T15:31:29.799Z,86.58
2018-12-12T15:33:59.258Z,86.88
2018-12-12T15:36:29.277Z,87.41
2018-12-12T15:38:59.561Z,87.23
2018-12-12T15:41:29.653Z,87.70
2018-12-12T15:43:59.840Z,87.92
2018-12-12T15:46:29.923Z,87.48
2018-12-12T15:48:59.570Z,87.93
2018-12-12T15:51:29.520Z,88.00
2018-12-12T15:53:59.702Z,87.78
2018-12-12T15:56:30.403Z,87.54
2018-12-12T15:59:00.305Z,88.32
2018-12-12T16:01:30.869Z,88.79
2018-12-12T16:04:00.391Z,88.77
2018-12-12T16:06:29.986Z,89.03
2018-12-12T16:08:59.770Z,89.37
2018-12-12T16:11:29.956Z,89.12
2018-12-12T16:13:59.471Z,89.52
2018-12-12T16:16:29.345Z,88.85
2018-12-12T16:18:58.871Z,88.58
2018-12-12T16:21:28.517Z,88.83
2018-12-12T16:23:58.271Z,88.49
2018-12-12T16:26:28.490Z,88.47
2018-12-12T16:28:58.731Z,88.94
2018-12-12T16:31:28.226Z,89.13
2018-12-12T16:33:57.869Z,88.19
2018-12-12T16:36:28.167Z,87.03
2018-12-12T16:38:57.856Z,87.02
2018-12-12T16:41:27.580Z,87.47
2018-12-12T16:43:57.136Z,87.58
2018-12-12T16:46:28.662Z,87.70
2018-12-12T16:48:58.355Z,87.68
2018-12-12T16:51:28.108Z,88.03
2018-12-12T16:53:58.043Z,88.64
2018-12-12T16:56:27.806Z,88.38
2018-12-12T16:58:58.033Z,88.11
2018-12-12T17:01:27.365Z,88.14
2018-12-12T17:03:57.346Z,88.40
2018-12-12T17:06:27.497Z,88.77
2018-12-12T17:08:59.297Z,87.93
2018-12-12T17:11:28.930Z,87.63
2018-12-12T17:14:00.271Z,87.67
2018-12-12T17:16:30.002Z,87.59
2018-12-12T17:18:59.568Z,88.00
2018-12-12T17:21:29.376Z,88.02
2018-12-12T17:23:58.977Z,87.98
2018-12-12T17:26:28.487Z,88.22
2018-12-12T17:28:58.260Z,88.20
2018-12-12T17:31:29.627Z,87.95
2018-12-12T17:34:00.850Z,88.60
2018-12-12T17:36:31.267Z,88.17
2018-12-12T17:39:01.722Z,88.53
2018-12-12T17:41:34.182Z,88.41
2018-12-12T17:44:05.451Z,88.36
2018-12-12T17:46:36.021Z,88.05
2018-12-12T17:49:06.710Z,88.39
2018-12-12T17:51:37.221Z,88.26
2018-12-12T17:54:08.589Z,88.40
2018-12-12T17:56:38.462Z,88.95
2018-12-12T17:59:08.442Z,88.36
2018-12-12T18:01:39.422Z,88.62
2018-12-12T18:04:11.238Z,88.48
2018-12-12T18:06:44.698Z,88.35
2018-12-12T18:09:14.411Z,87.57
2018-12-12T18:11:44.500Z,87.86
2018-12-12T18:14:14.669Z,87.71
2018-12-12T18:16:47.043Z,88.23
2018-12-12T18:19:17.539Z,87.78
2018-12-12T18:21:47.524Z,87.35
2018-12-12T18:24:19.316Z,87.20
2018-12-12T18:26:48.793Z,86.97
2018-12-12T18:29:18.890Z,86.56
2018-12-12T18:31:49.097Z,86.29
2018-12-12T18:34:24.487Z,85.89
2018-12-12T18:36:54.536Z,85.79
2018-12-12T18:39:24.382Z,85.14
2018-12-12T18:41:54.893Z,85.37
2018-12-12T18:44:44.493Z,85.23
2018-12-12T18:47:14.623Z,85.19
2018-12-12T18:49:44.907Z,85.02
2018-12-12T18:52:17.822Z,84.53
2018-12-12T18:54:47.385Z,84.66
2018-12-12T18:57:20.038Z,85.10
2018-12-12T18:59:49.733Z,83.94
2018-12-12T19:02:19.482Z,84.60
2018-12-12T19:04:49.818Z,85.01
2018-12-12T19:07:20.388Z,84.50
2018-12-12T19:09:50.183Z,84.11
2018-12-12T19:12:19.846Z,84.15
2018-12-12T19:14:54.537Z,84.01
2018-12-12T19:17:24.686Z,84.31
2018-12-12T19:19:54.183Z,83.53
2018-12-12T19:22:24.265Z,83.29
2018-12-12T19:24:54.406Z,83.40
2018-12-12T19:27:24.151Z,83.83
2018-12-12T19:29:53.729Z,84.08
2018-12-12T19:32:23.967Z,83.77
2018-12-12T19:34:54.111Z,83.86
2018-12-12T19:37:24.148Z,83.76
2018-12-12T19:39:53.888Z,83.70
2018-12-12T19:42:23.818Z,83.91
2018-12-12T19:44:55.001Z,84.25
2018-12-12T19:47:24.786Z,83.48
2018-12-12T19:49:54.291Z,83.09
2018-12-12T19:52:24.165Z,83.30
2018-12-12T19:54:53.867Z,83.09
2018-12-12T19:57:23.495Z,83.26
2018-12-12T19:59:52.908Z,82.36
2018-12-12T20:02:22.559Z,82.05
2018-12-12T20:04:52.652Z,82.22
2018-12-12T20:07:22.272Z,81.76
2018-12-12T20:09:51.960Z,81.73
2018-12-12T20:12:21.779Z,81.28
2018-12-12T20:14:51.474Z,81.39
2018-12-12T20:17:21.784Z,81.04
2018-12-12T20:19:51.876Z,81.18
2018-12-12T20:22:22.319Z,80.70
2018-12-12T20:24:53.412Z,81.25
2018-12-12T20:27:23.321Z,81.15
2018-12-12T20:29:54.721Z,80.96
2018-12-12T20:32:25.702Z,81.01
2018-12-12T20:34:56.453Z,81.70
2018-12-12T20:37:26.327Z,81.55
2018-12-12T20:39:55.957Z,82.16
2018-12-12T20:42:25.678Z,81.68
2018-12-12T20:44:55.834Z,82.30
2018-12-12T20:47:25.868Z,82.88
2018-12-12T20:49:56.286Z,82.73
2018-12-12T20:52:26.387Z,83.16
2018-12-12T20:54:56.494Z,82.82
2018-12-12T20:57:26.120Z,83.00
2018-12-12T20:59:56.049Z,82.84
2018-12-12T21:02:26.253Z,83.19
2018-12-12T21:04:55.951Z,83.33
2018-12-12T21:07:25.683Z,83.28
2018-12-12T21:09:56.006Z,84.07
2018-12-12T21:12:25.903Z,84.21
2018-12-12T21:14:56.379Z,84.21
2018-12-12T21:17:26.368Z,84.22
2018-12-12T21:19:55.998Z,84.17
2018-12-12T21:22:25.784Z,84.22
2018-12-12T21:24:56.827Z,84.37
2018-12-12T21:27:26.474Z,84.16
2018-12-12T21:29:56.380Z,84.01
2018-12-12T21:32:25.862Z,84.12
2018-12-12T21:34:55.839Z,84.14
2018-12-12T21:37:25.108Z,84.33
2018-12-12T21:39:54.842Z,84.23
2018-12-12T21:42:24.547Z,83.95
2018-12-12T21:44:54.398Z,84.38
2018-12-12T21:47:25.021Z,84.41
2018-12-12T21:49:54.873Z,84.39
2018-12-12T21:52:25.279Z,84.38
2018-12-12T21:54:56.607Z,84.60
2018-12-12T21:57:26.703Z,85.22
2018-12-12T21:59:56.843Z,84.98
2018-12-12T22:02:26.586Z,85.43
2018-12-12T22:04:56.241Z,85.71
2018-12-12T22:07:26.538Z,85.62
2018-12-12T22:09:56.592Z,86.19
2018-12-12T22:12:26.068Z,86.94
2018-12-12T22:14:55.623Z,87.62
2018-12-12T22:17:25.234Z,87.77
2018-12-12T22:19:54.642Z,87.65
2018-12-12T22:22:24.313Z,88.53
2018-12-12T22:24:53.816Z,88.41
2018-12-12T22:27:24.032Z,89.15
2018-12-12T22:29:53.326Z,89.47
2018-12-12T22:32:23.463Z,89.78
2018-12-12T22:34:53.657Z,89.94
2018-12-12T22:37:22.985Z,89.70
2018-12-12T22:39:52.452Z,90.37
2018-12-12T22:42:21.912Z,90.54
2018-12-12T22:44:52.213Z,90.90
2018-12-12T22:47:21.694Z,91.39
2018-12-12T22:49:51.029Z,91.22
2018-12-12T22:52:22.355Z,90.88
2018-12-12T22:54:52.490Z,90.97
2018-12-12T22:57:21.930Z,90.85
2018-12-12T22:59:52.046Z,91.21
2018-12-12T23:02:21.612Z,91.26
2018-12-12T23:04:51.086Z,91.89
2018-12-12T23:07:20.462Z,91.99
2018-12-12T23:09:50.582Z,92.20
2018-12-12T23:12:21.726Z,91.75
2018-12-12T23:14:51.072Z,91.79
2018-12-12T23:17:21.356Z,92.03
2018-12-12T23:19:50.721Z,91.94
2018-12-12T23:22:20.166Z,92.39
2018-12-12T23:24:50.818Z,92.23
2018-12-12T23:27:20.180Z,92.39
2018-12-12T23:29:49.828Z,92.50
2018-12-12T23:32:19.442Z,92.37
2018-12-12T23:34:48.682Z,93.15
2018-12-12T23:37:18.846Z,93.49
2018-12-12T23:39:48.218Z,93.57
2018-12-12T23:42:18.580Z,93.52
2018-12-12T23:44:48.595Z,94.13
2018-12-12T23:47:17.828Z,94.58
2018-12-12T23:49:47.245Z,94.33
2018-12-12T23:52:17.079Z,94.25
2018-12-12T23:54:46.500Z,93.78
2018-12-12T23:57:15.865Z,94.01
2018-12-12T23:59:45.395Z,94.22
